Time;durP1;ratioP1;P1;durP2;ratioP2;P2;SDS_P1;SDS_P2;PMS_P1;PMS_P2;Temp;Humidity;BMP_temperature;BMP_pressure;BME280_temperature;BME280_humidity;BME280_pressure;Samples;Min_cycle;Max_cycle;Signal;HPM_P1;HPM_P2
2022/05/01 00:00:44;;;;;;;24.30;14.35;;;;;;;-146.64;100.00;89911.41;5021574;28;20022;-80
2022/05/01 00:03:30;;;;;;;20.45;14.82;;;;;;;-146.64;100.00;92830.91;5002988;28;20044;-80
2022/05/01 00:05:54;;;;;;;25.48;14.07;;;;;;;-146.64;100.00;91503.59;5008871;28;20481;-80
2022/05/01 00:08:20;;;;;;;22.15;13.73;;;;;;;-146.64;100.00;89380.81;5009575;28;20033;-80
2022/05/01 00:10:45;;;;;;;22.48;13.77;;;;;;;-146.64;100.00;89911.41;5011096;28;20029;-80
2022/05/01 00:13:11;;;;;;;23.13;13.95;;;;;;;-146.64;100.00;92830.91;5014789;28;20080;-79
2022/05/01 00:15:37;;;;;;;21.48;15.73;;;;;;;-146.64;100.00;94689.88;4992049;28;20025;-80
2022/05/01 00:18:03;;;;;;;23.35;14.55;;;;;;;-146.64;100.00;93893.06;5019346;28;20028;-80
2022/05/01 00:20:31;;;;;;;24.08;14.88;;;;;;;-146.64;100.00;94689.88;4982698;28;20048;-80
2022/05/01 00:22:56;;;;;;;25.83;14.75;;;;;;;-146.64;100.00;94955.53;5006866;28;20056;-79
2022/05/01 00:25:22;;;;;;;21.55;13.75;;;;;;;-146.64;100.00;94158.66;4989408;28;20029;-80
2022/05/01 00:27:47;;;;;;;20.95;14.60;;;;;;;-146.64;100.00;96283.97;5010830;28;20061;-80
2022/05/01 00:30:13;;;;;;;19.83;13.88;;;;;;;-146.64;100.00;95752.53;5012738;28;20025;-80
2022/05/01 00:38:09;;;;;;;23.98;14.27;;;;;;;-146.64;100.00;95221.19;4998071;28;20096;-80
2022/05/01 00:40:35;;;;;;;19.90;14.10;;;;;;;-146.64;100.00;94689.88;5026333;28;20025;-79
2022/05/01 00:43:02;;;;;;;23.67;14.95;;;;;;;-146.64;100.00;96815.47;4982150;28;20389;-80
2022/05/01 00:45:27;;;;;;;20.05;14.95;;;;;;;-146.64;100.00;94158.66;5008150;28;20428;-80
2022/05/01 00:47:53;;;;;;;21.40;14.77;;;;;;;-146.64;100.00;95486.84;4996337;28;20038;-80
2022/05/01 00:50:19;;;;;;;21.08;14.85;;;;;;;-146.64;100.00;96018.25;4998530;28;20036;-80
2022/05/01 00:52:45;;;;;;;19.80;14.60;;;;;;;-146.64;100.00;95221.19;4995651;28;20563;-79
2022/05/01 00:55:11;;;;;;;22.27;14.32;;;;;;;-146.64;100.00;94955.53;4998368;28;20062;-80
2022/05/01 00:57:36;;;;;;;22.23;14.10;;;;;;;-146.64;100.00;94955.53;4992159;28;20343;-80
2022/05/01 01:00:06;;;;;;;27.02;14.43;;;;;;;-146.64;100.00;92565.41;4992027;28;20030;-80
2022/05/01 01:02:31;;;;;;;27.88;15.13;;;;;;;-146.64;100.00;93627.50;4995790;28;20461;-78
2022/05/01 01:04:57;;;;;;;30.15;15.77;;;;;;;-146.64;100.00;96283.97;5000215;28;20029;-78
2022/05/01 01:07:25;;;;;;;23.10;14.60;;;;;;;-146.64;100.00;96283.97;4995072;28;20061;-79
2022/05/01 01:09:50;;;;;;;24.67;14.82;;;;;;;-146.64;100.00;98676.28;4992412;28;20030;-78
2022/05/01 01:15:10;;;;;;;21.98;14.90;;;;;;;-146.64;100.00;94689.88;4980781;28;20397;-78
2022/05/01 01:17:42;;;;;;;20.83;15.25;;;;;;;-146.64;100.00;93893.06;4992324;28;20033;-79
2022/05/01 01:20:28;;;;;;;19.38;14.60;;;;;;;-146.64;100.00;93096.44;4991492;28;20033;-78
2022/05/01 01:22:55;;;;;;;24.75;15.40;;;;;;;-146.64;100.00;96018.25;4997431;28;20045;-78
2022/05/01 01:25:31;;;;;;;21.25;15.38;;;;;;;-146.64;100.00;96549.72;5012473;28;20041;-78
2022/05/01 01:28:02;;;;;;;21.35;14.80;;;;;;;-146.64;100.00;96018.25;4998317;28;20034;-78
2022/05/01 01:33:26;;;;;;;24.00;16.15;;;;;;;-146.64;100.00;99208.09;5010461;28;20091;-78
2022/05/01 01:35:52;;;;;;;24.75;15.50;;;;;;;-146.64;100.00;99739.97;4983723;28;20172;-78
2022/05/01 01:38:17;;;;;;;24.42;15.93;;;;;;;-146.64;100.00;99474.03;4992519;28;20117;-78
2022/05/01 01:40:51;;;;;;;23.27;15.45;;;;;;;-146.64;100.00;97878.69;5001917;28;20061;-78
2022/05/01 01:43:19;;;;;;;26.42;16.58;;;;;;;-146.64;100.00;98410.41;4994210;28;20038;-78
2022/05/01 01:45:46;;;;;;;20.40;14.57;;;;;;;-146.64;100.00;98676.28;5010179;28;20021;-77
2022/05/01 01:48:13;;;;;;;24.88;16.70;;;;;;;-146.64;100.00;99739.97;5012058;28;20056;-77
2022/05/01 01:50:39;;;;;;;23.45;15.85;;;;;;;-146.64;100.00;99208.09;4983246;28;20103;-78
2022/05/01 01:53:04;;;;;;;23.73;16.15;;;;;;;-146.64;100.00;97081.25;5000377;28;20038;-79
2022/05/01 01:55:37;;;;;;;22.95;15.45;;;;;;;-146.64;100.00;99208.09;4999361;28;20022;-77
2022/05/01 01:58:03;;;;;;;24.92;14.90;;;;;;;-146.64;100.00;100537.94;5011325;28;20022;-78
2022/05/01 02:00:28;;;;;;;22.90;16.20;;;;;;;-146.64;100.00;100271.94;4993217;28;20575;-78
2022/05/01 02:03:12;;;;;;;24.15;16.13;;;;;;;-146.64;100.00;100537.94;5004230;28;20033;-78
2022/05/01 02:05:37;;;;;;;27.42;16.48;;;;;;;-146.64;100.00;101336.06;4986530;28;20026;-78
2022/05/01 02:08:05;;;;;;;26.88;15.70;;;;;;;-146.64;100.00;103198.94;4986595;28;20106;-78
2022/05/01 02:10:31;;;;;;;24.33;15.93;;;;;;;-146.64;100.00;103198.94;4966203;28;20026;-80
2022/05/01 02:12:56;;;;;;;27.58;16.60;;;;;;;-146.64;100.00;101070.00;5012926;28;20457;-80
2022/05/01 02:15:22;;;;;;;23.88;15.35;;;;;;;-146.64;100.00;100537.94;5001470;28;20036;-78
2022/05/01 02:17:51;;;;;;;24.60;17.37;;;;;;;-146.64;100.00;100803.97;5019213;28;20025;-77
2022/05/01 02:20:16;;;;;;;25.35;15.60;;;;;;;-146.64;100.00;100005.94;5000096;28;20283;-78
2022/05/01 02:22:42;;;;;;;25.83;15.88;;;;;;;-146.64;100.00;98676.28;5002203;28;20037;-78
2022/05/01 02:25:09;;;;;;;24.17;16.40;;;;;;;-146.64;100.00;99474.03;4997768;28;20022;-78
2022/05/01 02:27:35;;;;;;;23.80;16.90;;;;;;;-146.64;100.00;101868.22;5011175;28;20048;-77
2022/05/01 02:30:00;;;;;;;23.30;16.48;;;;;;;-146.64;100.00;102134.31;5012050;28;20026;-79
2022/05/01 02:32:26;;;;;;;25.85;16.95;;;;;;;-146.64;100.00;101868.22;4976337;28;20448;-80
2022/05/01 02:34:51;;;;;;;23.48;16.50;;;;;;;-146.64;100.00;101070.00;4994304;28;20043;-79
2022/05/01 02:37:17;;;;;;;23.70;16.67;;;;;;;-146.64;100.00;101070.00;5029452;28;20120;-80
2022/05/01 02:39:42;;;;;;;25.10;16.33;;;;;;;-146.64;100.00;102666.59;4992647;28;20125;-81
2022/05/01 02:42:08;;;;;;;22.55;16.25;;;;;;;-146.64;100.00;102666.59;4992201;28;20034;-78
2022/05/01 02:44:33;;;;;;;27.08;16.52;;;;;;;-146.64;100.00;103997.56;5018378;28;20087;-80
2022/05/01 02:46:59;;;;;;;24.88;16.67;;;;;;;-146.64;100.00;105062.66;5007777;28;20033;-79
2022/05/01 02:49:27;;;;;;;24.50;16.02;;;;;;;-146.64;100.00;104530.09;5019896;28;20089;-79
2022/05/01 02:51:53;;;;;;;24.38;16.55;;;;;;;-146.64;100.00;103731.34;5010776;28;20033;-79
2022/05/01 02:54:20;;;;;;;25.73;16.02;;;;;;;-146.64;100.00;104263.81;4963570;28;20551;-80
2022/05/01 02:56:45;;;;;;;24.75;16.25;;;;;;;-146.64;100.00;103997.56;5012829;28;20037;-80
2022/05/01 02:59:11;;;;;;;23.45;16.40;;;;;;;-146.64;100.00;104530.09;5012709;28;20109;-79
2022/05/01 03:01:36;;;;;;;25.77;17.35;;;;;;;-146.64;100.00;102932.75;5016872;28;20113;-79
2022/05/01 03:04:03;;;;;;;24.70;16.38;;;;;;;-146.64;100.00;102400.44;4995407;28;20061;-80
2022/05/01 03:06:28;;;;;;;28.13;16.37;;;;;;;-146.64;100.00;103731.34;5000908;28;20032;-79
2022/05/01 03:08:54;;;;;;;28.92;16.52;;;;;;;-146.64;100.00;103198.94;4995873;28;20283;-79
2022/05/01 03:11:19;;;;;;;24.55;15.90;;;;;;;-146.64;100.00;103731.34;4993649;28;20025;-79
2022/05/01 03:13:44;;;;;;;24.30;16.42;;;;;;;-146.64;100.00;103731.34;4988069;28;20065;-79
2022/05/01 03:16:10;;;;;;;25.67;16.70;;;;;;;-146.64;100.00;103465.13;5014165;28;20030;-78
2022/05/01 03:24:03;;;;;;;25.98;16.83;;;;;;;-146.64;100.00;104263.81;5009333;28;20041;-80
2022/05/01 03:26:29;;;;;;;24.45;16.25;;;;;;;-146.64;100.00;104263.81;5016453;28;20022;-79
2022/05/01 03:28:54;;;;;;;23.40;15.75;;;;;;;-146.64;100.00;104263.81;5006318;28;20095;-78
2022/05/01 03:31:20;;;;;;;27.17;16.45;;;;;;;-146.64;100.00;105329.00;4982052;28;20057;-79
2022/05/01 03:33:45;;;;;;;26.65;16.23;;;;;;;-146.64;100.00;104263.81;5004982;28;20087;-79
2022/05/01 03:36:11;;;;;;;24.95;16.33;;;;;;;-146.64;100.00;103997.56;4983833;28;20057;-79
2022/05/01 03:38:37;;;;;;;25.67;17.40;;;;;;;-146.64;100.00;103997.56;4999537;28;20032;-79
2022/05/01 03:41:07;;;;;;;25.60;16.95;;;;;;;-146.64;100.00;104796.38;4983574;28;20493;-79
2022/05/01 03:43:34;;;;;;;25.90;16.73;;;;;;;-146.64;100.00;104530.09;4998271;28;20034;-79
2022/05/01 03:46:00;;;;;;;25.98;16.80;;;;;;;-146.64;100.00;104796.38;4999090;28;20143;-79
2022/05/01 03:48:26;;;;;;;25.23;17.05;;;;;;;-146.64;100.00;104263.81;5015457;28;20086;-80
2022/05/01 03:50:52;;;;;;;28.83;15.68;;;;;;;-146.64;100.00;102666.59;4989952;28;20036;-79
2022/05/01 03:53:18;;;;;;;25.60;16.48;;;;;;;-146.64;100.00;103465.13;4989648;28;20035;-79
2022/05/01 03:55:43;;;;;;;26.90;17.90;;;;;;;-146.64;100.00;105062.66;4997460;28;20068;-80
2022/05/01 03:58:09;;;;;;;28.80;17.10;;;;;;;-146.64;100.00;105329.00;5027407;28;20474;-79
2022/05/01 04:00:35;;;;;;;26.30;17.55;;;;;;;-146.64;100.00;105062.66;5017414;28;20079;-80
2022/05/01 04:03:00;;;;;;;27.50;16.60;;;;;;;-146.64;100.00;104796.38;5033152;28;20120;-79
2022/05/01 04:05:26;;;;;;;26.02;16.67;;;;;;;-146.64;100.00;103731.34;4975123;28;20095;-79
2022/05/01 04:07:51;;;;;;;24.70;16.05;;;;;;;-146.64;100.00;102666.59;4996649;28;20037;-79
2022/05/01 04:10:16;;;;;;;22.35;16.05;;;;;;;-146.64;100.00;102400.44;5006181;28;20041;-79
2022/05/01 04:12:43;;;;;;;29.30;17.15;;;;;;;-146.64;100.00;102400.44;5019954;28;20084;-79
2022/05/01 04:15:11;;;;;;;24.65;17.10;;;;;;;-146.64;100.00;103465.13;5006834;28;20093;-78
2022/05/01 04:17:39;;;;;;;27.67;16.90;;;;;;;-146.64;100.00;103731.34;4996980;28;20026;-79
2022/05/01 04:20:08;;;;;;;24.35;17.15;;;;;;;-146.64;100.00;104263.81;5007092;28;20025;-78
2022/05/01 04:22:52;;;;;;;25.83;17.38;;;;;;;-146.64;100.00;104263.81;5015074;28;20038;-79
2022/05/01 04:25:19;;;;;;;30.38;18.33;;;;;;;-146.64;100.00;103997.56;5008421;28;20030;-78
2022/05/01 04:27:47;;;;;;;25.45;16.85;;;;;;;-146.64;100.00;102666.59;5016822;28;20605;-78
2022/05/01 04:30:13;;;;;;;30.20;17.50;;;;;;;-146.64;100.00;102400.44;4996121;28;20097;-78
2022/05/01 04:32:53;;;;;;;27.67;17.55;;;;;;;-146.64;100.00;103465.13;5011858;28;20052;-79
2022/05/01 04:35:31;;;;;;;26.92;17.92;;;;;;;-146.64;100.00;102932.75;5016666;28;20034;-79
2022/05/01 04:38:00;;;;;;;27.80;18.10;;;;;;;-146.64;100.00;101602.13;4996707;28;20072;-78
2022/05/01 04:40:30;;;;;;;28.88;17.80;;;;;;;-146.64;100.00;100537.94;5014840;28;20038;-79
2022/05/01 04:43:17;;;;;;;24.33;16.90;;;;;;;-146.64;100.00;98410.41;5005599;28;20041;-80
2022/05/01 04:45:43;;;;;;;24.77;16.58;;;;;;;-146.64;100.00;95486.84;5015780;28;20025;-79
2022/05/01 04:48:10;;;;;;;27.85;18.08;;;;;;;-146.64;100.00;94158.66;5026470;28;20029;-78
2022/05/01 04:50:35;;;;;;;29.27;17.45;;;;;;;-146.64;100.00;93893.06;5014376;28;20566;-79
2022/05/01 04:53:03;;;;;;;23.67;17.00;;;;;;;-146.64;100.00;91503.59;5006551;28;20125;-77
2022/05/01 04:55:29;;;;;;;23.90;16.10;;;;;;;-146.64;100.00;86198.72;5002708;28;20463;-80
2022/05/01 04:57:55;;;;;;;26.90;17.13;;;;;;;-146.64;100.00;84078.72;4997915;28;20025;-77
2022/05/01 05:00:21;;;;;;;26.15;17.10;;;;;;;-146.64;100.00;83284.00;5011801;28;20478;-77
2022/05/01 05:02:48;;;;;;;30.33;18.30;;;;;;;-146.64;100.00;81695.03;5013178;28;20026;-78
2022/05/01 05:05:14;;;;;;;27.90;18.27;;;;;;;-146.64;100.00;80900.81;5022052;28;20029;-77
2022/05/01 05:07:40;;;;;;;26.02;17.58;;;;;;;-146.64;100.00;80636.09;5005246;28;20038;-78
2022/05/01 05:10:08;;;;;;;26.80;18.23;;;;;;;-146.64;100.00;80636.09;5012620;28;20544;-78
2022/05/01 05:12:34;;;;;;;27.92;19.23;;;;;;;-146.64;100.00;81165.53;5003420;28;20041;-79
2022/05/01 05:15:00;;;;;;;27.50;18.58;;;;;;;-146.64;100.00;80106.72;5031969;28;20025;-80
2022/05/01 05:17:27;;;;;;;33.55;20.90;;;;;;;-146.64;100.00;80371.41;5026135;28;20041;-79
2022/05/01 05:19:53;;;;;;;38.72;21.90;;;;;;;-146.64;100.00;82224.63;5019643;28;20029;-79
2022/05/01 05:22:19;;;;;;;39.55;25.48;;;;;;;-146.64;100.00;87789.44;5012273;28;20097;-80
2022/05/01 05:24:44;;;;;;;46.28;27.50;;;;;;;-146.64;100.00;91503.59;5005741;28;20497;-80
2022/05/01 05:27:10;;;;;;;52.60;30.13;;;;;;;-146.64;100.00;95752.53;5003070;28;20034;-79
2022/05/01 05:29:35;;;;;;;44.45;29.67;;;;;;;-146.64;100.00;96283.97;5001557;28;20069;-79
2022/05/01 05:32:00;;;;;;;48.33;30.48;;;;;;;-146.64;100.00;97081.25;5005851;28;20041;-78
2022/05/01 05:34:27;;;;;;;52.67;30.73;;;;;;;-146.64;100.00;96815.47;5012706;28;20025;-80
2022/05/01 05:36:52;;;;;;;51.65;31.05;;;;;;;-146.64;100.00;96283.97;5021804;28;20033;-79
2022/05/01 05:39:17;;;;;;;54.25;30.63;;;;;;;-146.64;100.00;96283.97;5011886;28;20401;-80
2022/05/01 05:41:43;;;;;;;45.83;28.48;;;;;;;-146.64;100.00;95221.19;5010370;28;20033;-81
2022/05/01 05:44:08;;;;;;;44.10;28.70;;;;;;;-146.64;100.00;93096.44;5020057;28;20047;-78
2022/05/01 05:46:33;;;;;;;43.10;27.38;;;;;;;-146.64;100.00;92034.47;4995769;28;20022;-79
2022/05/01 05:48:59;;;;;;;47.58;28.38;;;;;;;-146.64;100.00;90442.06;5009129;28;20022;-77
2022/05/01 05:51:27;;;;;;;41.65;28.50;;;;;;;-146.64;100.00;88850.28;5004930;28;20030;-76
2022/05/01 05:53:53;;;;;;;45.05;28.95;;;;;;;-146.64;100.00;86728.88;5027942;28;20017;-80
2022/05/01 05:56:19;;;;;;;43.42;28.73;;;;;;;-146.64;100.00;85403.56;4999537;28;20107;-79
2022/05/01 05:58:47;;;;;;;41.40;27.97;;;;;;;-146.64;100.00;84343.66;5008778;28;20018;-79
2022/05/01 06:01:13;;;;;;;43.72;28.73;;;;;;;-146.64;100.00;82754.28;5008329;28;20163;-81
2022/05/01 06:03:39;;;;;;;42.17;27.60;;;;;;;-146.64;100.00;80636.09;4999752;28;20026;-81
2022/05/01 06:06:05;;;;;;;41.80;27.20;;;;;;;-146.64;100.00;77725.41;5011172;28;21064;-80
2022/05/01 06:08:30;;;;;;;43.37;28.53;;;;;;;-146.64;100.00;75609.88;4983067;28;20038;-81
2022/05/01 06:10:56;;;;;;;42.03;26.70;;;;;;;-146.64;100.00;73495.47;5019614;28;20305;-80
2022/05/01 06:13:21;;;;;;;39.58;25.85;;;;;;;-146.64;100.00;71646.25;4991518;28;20164;-80
2022/05/01 06:15:47;;;;;;;39.72;26.42;;;;;;;-146.64;100.00;68742.09;4997862;28;20072;-79
2022/05/01 06:18:13;;;;;;;37.50;25.20;;;;;;;-146.64;100.00;66103.78;5023232;28;20058;-79
2022/05/01 06:20:38;;;;;;;36.72;24.50;;;;;;;-146.64;100.00;62413.09;4990431;28;20181;-80
2022/05/01 06:23:04;;;;;;;37.22;23.65;;;;;;;-146.64;100.00;53386.16;5018645;28;20048;-79
2022/05/01 06:25:29;;;;;;;37.53;24.40;;;;;;;-146.64;100.00;40293.66;5035353;28;20025;-79
2022/05/01 06:27:54;;;;;;;33.27;23.00;;;;;;;-146.64;100.00;39327.56;5019688;28;20029;-77
2022/05/01 06:30:20;;;;;;;36.10;23.43;;;;;;;-146.64;100.00;39194.53;5010501;28;20622;-79
2022/05/01 06:32:46;;;;;;;32.83;20.80;;;;;;;-146.64;100.00;39215.00;5003281;28;20129;-79
2022/05/01 06:35:12;;;;;;;29.37;20.37;;;;;;;-146.64;100.00;39161.78;5008318;28;20052;-80
2022/05/01 06:37:46;;;;;;;25.67;19.43;;;;;;;-146.64;100.00;39227.28;4987993;28;20436;-79
2022/05/01 06:40:11;;;;;;;30.48;20.20;;;;;;;-146.64;100.00;39264.09;5009627;28;20021;-79
2022/05/01 06:42:37;;;;;;;26.73;18.33;;;;;;;-146.64;100.00;39194.53;5017304;28;20044;-80
2022/05/01 06:45:03;;;;;;;22.57;17.37;;;;;;;-146.64;100.00;39169.97;4992823;28;20029;-79
2022/05/01 06:47:28;;;;;;;26.33;17.27;;;;;;;-146.64;100.00;39169.97;4996546;28;20018;-79
2022/05/01 06:49:55;;;;;;;27.77;16.70;;;;;;;-146.64;100.00;39098.34;5007309;28;20074;-82
2022/05/01 06:52:23;;;;;;;29.42;16.95;;;;;;;-146.64;100.00;38965.31;5001367;28;20034;-80
2022/05/01 06:54:52;;;;;;;19.23;15.48;;;;;;;-146.64;100.00;38969.41;5007195;28;20110;-81
2022/05/01 06:57:17;;;;;;;22.42;14.85;;;;;;;-146.64;100.00;38953.03;5000991;28;20361;-80
2022/05/01 06:59:42;;;;;;;19.67;13.80;;;;;;;-146.64;100.00;38912.13;4979551;28;20129;-79
2022/05/01 07:02:08;;;;;;;20.77;13.97;;;;;;;-146.64;100.00;38889.59;4980261;28;20056;-80
2022/05/01 07:04:33;;;;;;;14.90;11.93;;;;;;;-146.64;100.00;38770.91;4984044;28;20030;-81
2022/05/01 07:06:59;;;;;;;16.97;12.80;;;;;;;-146.64;100.00;38725.91;4992616;28;20072;-81
2022/05/01 07:09:27;;;;;;;13.50;11.30;;;;;;;-146.64;100.00;38609.25;4976322;28;20034;-81
2022/05/01 07:11:53;;;;;;;14.90;10.95;;;;;;;-146.64;100.00;38633.81;4993301;28;20521;-81
2022/05/01 07:14:18;;;;;;;14.67;10.07;;;;;;;-146.64;100.00;38531.50;5009099;28;20034;-80
2022/05/01 07:16:43;;;;;;;14.30;11.00;;;;;;;-146.64;100.00;38535.59;5001007;28;20045;-79
2022/05/01 07:19:12;;;;;;;15.00;9.90;;;;;;;-146.64;100.00;38623.59;4986628;28;20037;-82
2022/05/01 07:21:37;;;;;;;14.48;10.02;;;;;;;-146.64;100.00;38723.84;5008181;28;20477;-81
2022/05/01 07:24:03;;;;;;;17.30;12.13;;;;;;;-146.64;100.00;38748.41;5014557;28;20037;-82
2022/05/01 07:26:33;;;;;;;19.40;11.20;;;;;;;-146.64;100.00;38789.34;4994229;28;20584;-82
2022/05/01 07:28:59;;;;;;;20.95;12.18;;;;;;;-146.64;100.00;38748.41;5000367;28;20034;-82
2022/05/01 07:31:24;;;;;;;17.23;10.80;;;;;;;-146.64;100.00;38830.25;5001679;28;20028;-80
2022/05/01 07:33:50;;;;;;;12.67;9.63;;;;;;;-146.64;100.00;38846.63;5021300;28;20797;-80
2022/05/01 07:36:15;;;;;;;19.20;11.40;;;;;;;-146.64;100.00;38924.41;5020368;28;20520;-80
2022/05/01 07:38:40;;;;;;;15.50;10.87;;;;;;;-146.64;100.00;38899.84;5001756;28;20529;-80
2022/05/01 07:41:06;;;;;;;15.63;10.37;;;;;;;-146.64;100.00;39002.16;4980774;28;20386;-80
2022/05/01 07:43:31;;;;;;;12.83;10.33;;;;;;;-146.64;100.00;38977.59;4996282;28;20413;-82
2022/05/01 07:45:56;;;;;;;17.47;11.40;;;;;;;-146.64;100.00;38957.13;5003506;28;20214;-82
2022/05/01 07:48:22;;;;;;;20.10;11.40;;;;;;;-146.64;100.00;39006.25;4994486;28;20389;-81
2022/05/01 07:50:50;;;;;;;23.17;11.23;;;;;;;-146.64;100.00;39026.72;5004405;28;20029;-81
2022/05/01 07:53:16;;;;;;;15.82;10.20;;;;;;;-146.64;100.00;38993.97;5019570;28;20061;-80
2022/05/01 07:55:42;;;;;;;13.45;10.13;;;;;;;-146.64;100.00;38977.59;5006950;28;20030;-81
2022/05/01 07:58:07;;;;;;;16.17;11.20;;;;;;;-146.64;100.00;39002.16;4991934;28;20405;-81
2022/05/01 08:00:32;;;;;;;19.90;10.53;;;;;;;-146.64;100.00;38969.41;4991238;28;20033;-81
2022/05/01 08:05:42;;;;;;;14.07;10.02;;;;;;;-146.64;100.00;39010.34;4999257;28;20037;-80
2022/05/01 08:08:07;;;;;;;15.27;10.00;;;;;;;-146.64;100.00;39020.56;4987191;28;20352;-80
2022/05/01 08:10:33;;;;;;;12.13;8.77;;;;;;;-146.64;100.00;39034.91;5013333;28;20665;-80
2022/05/01 08:12:59;;;;;;;18.88;10.57;;;;;;;-146.64;100.00;38981.69;4983647;28;20532;-81
2022/05/01 08:15:27;;;;;;;12.73;9.83;;;;;;;-146.64;100.00;38924.41;5004462;28;20033;-81
2022/05/01 08:17:52;;;;;;;13.35;10.60;;;;;;;-146.64;100.00;38932.56;5014603;28;20365;-81
2022/05/01 08:23:06;;;;;;;10.25;8.75;;;;;;;-146.64;100.00;38871.19;4993815;28;20036;-81
2022/05/01 08:25:32;;;;;;;17.02;9.00;;;;;;;-146.64;100.00;38908.03;4997123;28;20050;-81
2022/05/01 08:27:57;;;;;;;13.00;9.33;;;;;;;-146.64;100.00;38871.19;5006878;28;20079;-80
2022/05/01 08:30:22;;;;;;;16.97;8.30;;;;;;;-146.64;100.00;38865.06;4998711;28;20254;-81
2022/05/01 08:32:47;;;;;;;12.40;8.63;;;;;;;-146.64;100.00;38838.44;5003687;28;20025;-81
2022/05/01 08:35:13;;;;;;;12.27;9.00;;;;;;;-146.64;100.00;38789.34;4989787;28;20113;-81
2022/05/01 08:37:40;;;;;;;13.57;9.73;;;;;;;-146.64;100.00;38756.59;5009721;28;20030;-80
2022/05/01 08:40:07;;;;;;;12.65;7.13;;;;;;;-146.64;97.86;38777.06;4998123;28;20398;-80
2022/05/01 08:42:35;;;;;;;10.10;6.93;;;;;;;-146.64;94.83;38727.94;4988614;28;20113;-79
2022/05/01 08:45:01;;;;;;;11.90;7.63;;;;;;;-146.64;95.15;38674.75;4993465;28;20116;-81
2022/05/01 08:47:42;;;;;;;11.55;7.95;;;;;;;-146.64;98.13;38719.75;5018984;28;20029;-81
2022/05/01 08:50:08;;;;;;;15.90;8.88;;;;;;;-146.64;99.17;38615.41;5007438;28;20037;-81
2022/05/01 08:52:37;;;;;;;13.95;9.77;;;;;;;-146.64;94.18;38605.16;4991695;28;20112;-80
2022/05/01 08:55:04;;;;;;;11.80;8.15;;;;;;;-146.64;91.38;38658.38;5009486;28;20404;-81
2022/05/01 08:57:33;;;;;;;12.93;8.88;;;;;;;-146.64;94.06;38664.50;4998730;28;20033;-80
2022/05/01 08:59:58;;;;;;;18.75;9.35;;;;;;;-146.64;94.58;38760.69;5001379;28;20033;-80
2022/05/01 09:02:26;;;;;;;12.37;8.60;;;;;;;-146.64;97.89;38736.13;4998994;28;20021;-81
2022/05/01 09:04:52;;;;;;;12.38;8.45;;;;;;;-146.64;98.65;38711.56;5014463;28;20066;-82
2022/05/01 09:07:17;;;;;;;10.33;7.60;;;;;;;-146.64;95.70;38721.81;5005170;28;20026;-79
2022/05/01 09:09:43;;;;;;;17.40;9.97;;;;;;;-146.64;91.42;38691.13;4977036;28;20401;-80
2022/05/01 09:14:56;;;;;;;9.38;6.97;;;;;;;-146.64;91.79;38775.00;4999863;28;20524;-81
2022/05/01 09:17:23;;;;;;;10.20;6.93;;;;;;;-146.64;87.18;38627.69;5017829;28;20057;-80
2022/05/01 09:19:56;;;;;;;11.73;6.30;;;;;;;-146.64;85.44;38611.31;4999548;28;20022;-80
2022/05/01 09:22:22;;;;;;;9.77;6.93;;;;;;;-146.64;85.25;38572.44;4990821;28;20033;-80
2022/05/01 09:24:52;;;;;;;11.87;8.00;;;;;;;-146.64;86.44;38539.69;4992746;28;20029;-80
2022/05/01 09:27:29;;;;;;;11.95;7.22;;;;;;;-146.64;84.60;38547.88;4991484;28;20037;-80
2022/05/01 09:30:19;;;;;;;9.30;7.32;;;;;;;-146.64;82.18;38543.78;5008406;28;20044;-80
2022/05/01 09:32:46;;;;;;;10.02;7.18;;;;;;;-146.64;80.58;38527.41;5006037;28;20076;-80
2022/05/01 09:35:16;;;;;;;10.52;7.30;;;;;;;-146.64;80.71;38488.53;4988177;28;20029;-80
2022/05/01 09:37:43;;;;;;;8.07;5.90;;;;;;;-146.64;74.55;38547.88;4987017;28;20064;-81
2022/05/01 09:40:10;;;;;;;11.00;6.40;;;;;;;-146.64;71.67;38511.03;4989063;28;20032;-81
2022/05/01 09:42:36;;;;;;;10.63;6.57;;;;;;;-146.64;70.20;38470.13;5007165;28;20501;-81
2022/05/01 09:45:11;;;;;;;10.67;5.97;;;;;;;-146.64;71.85;38449.66;4994925;28;20075;-81
2022/05/01 09:47:41;;;;;;;10.32;5.50;;;;;;;-146.64;69.42;38576.53;5004290;28;20051;-81
2022/05/01 09:50:07;;;;;;;13.10;6.13;;;;;;;-146.64;69.68;38486.50;4988774;28;20450;-81
2022/05/01 09:52:59;;;;;;;11.07;6.90;;;;;;;-146.64;69.45;38384.19;4964921;28;20066;-80
2022/05/01 09:55:25;;;;;;;9.15;6.10;;;;;;;-146.64;64.04;38326.88;5002584;28;20092;-81
2022/05/01 09:58:17;;;;;;;8.48;6.25;;;;;;;-146.64;66.06;38388.28;4997220;28;20025;-81
2022/05/01 10:00:45;;;;;;;6.85;5.47;;;;;;;-146.64;63.98;38341.22;5006416;28;20033;-80
2022/05/01 10:03:23;;;;;;;9.57;5.70;;;;;;;-146.64;61.49;38277.78;4982903;28;20086;-80
2022/05/01 10:05:49;;;;;;;6.88;5.40;;;;;;;-146.64;64.59;38163.22;5011998;28;20034;-79
2022/05/01 10:08:16;;;;;;;11.50;6.07;;;;;;;-146.64;60.86;38222.53;4974101;28;20042;-81
2022/05/01 10:10:42;;;;;;;;;;;;;;;-146.64;58.72;38179.56;4987701;28;20029;-80
2022/05/01 10:13:08;;;;;;;9.25;5.82;;;;;;;-146.64;58.49;38222.53;5001314;28;19932;-80
2022/05/01 10:15:33;;;;;;;;;;;;;;;-146.64;58.39;38198.00;4995139;28;20033;-80
2022/05/01 10:18:01;;;;;;;8.27;5.40;;;;;;;-146.64;59.24;38296.19;5009701;28;19921;-80
2022/05/01 10:20:26;;;;;;;11.60;6.20;;;;;;;-146.64;59.06;38198.00;4997941;28;20049;-81
2022/05/01 10:22:52;;;;;;;6.17;5.50;;;;;;;-146.64;57.31;38302.34;5008845;28;20392;-80
2022/05/01 10:25:17;;;;;;;7.60;5.43;;;;;;;-146.64;54.90;38271.66;4999572;28;20501;-79
2022/05/01 10:27:56;;;;;;;7.60;5.17;;;;;;;-146.64;54.44;38222.53;4991211;28;20033;-80
2022/05/01 10:33:32;;;;;;;8.63;5.78;;;;;;;-146.64;54.21;38337.13;5005565;28;20081;-80
2022/05/01 10:36:25;;;;;;;7.45;6.53;;;;;;;-146.64;53.70;38392.38;4989554;28;20036;-80
2022/05/01 10:39:14;;;;;;;7.93;5.15;;;;;;;-146.64;53.76;38449.66;4994649;28;20377;-81
2022/05/01 10:41:44;;;;;;;5.65;4.53;;;;;;;-146.64;54.87;38490.59;4993888;28;20678;-80
2022/05/01 10:44:30;;;;;;;8.60;4.70;;;;;;;-146.64;53.66;38549.91;4991738;28;20196;-78
2022/05/01 10:47:04;;;;;;;8.75;5.10;;;;;;;-146.64;53.40;38543.78;4993253;28;20037;-80
2022/05/01 10:49:39;;;;;;;5.70;4.40;;;;;;;-146.64;54.19;38547.88;5016529;28;20022;-80
2022/05/01 10:52:19;;;;;;;7.90;4.55;;;;;;;-146.64;55.82;38478.31;4997616;28;20037;-81
2022/05/01 10:54:58;;;;;;;7.40;5.45;;;;;;;-146.64;52.92;38406.69;5007436;28;20473;-83
2022/05/01 10:57:27;;;;;;;7.22;5.20;;;;;;;-146.64;54.20;38326.88;4990831;28;20057;-81
2022/05/01 11:00:10;;;;;;;8.13;6.05;;;;;;;-146.64;54.41;38285.97;5018574;28;20905;-81
2022/05/01 11:02:47;;;;;;;8.88;5.03;;;;;;;-146.64;51.92;38392.38;5020508;28;20120;-82
2022/05/01 11:05:44;;;;;;;7.68;4.85;;;;;;;-146.64;52.77;38486.50;5016541;28;20477;-82
2022/05/01 11:08:18;;;;;;;9.90;5.53;;;;;;;-146.64;52.31;38551.97;5022500;28;20037;-82
2022/05/01 11:10:43;;;;;;;6.35;5.03;;;;;;;-146.64;51.97;38539.69;5024006;28;20513;-82
2022/05/01 11:13:13;;;;;;;4.97;4.47;;;;;;;-146.64;52.71;38574.47;5014554;28;20029;-82
2022/05/01 11:15:45;;;;;;;9.18;5.07;;;;;;;-146.64;53.21;38576.53;4996712;28;20033;-82
2022/05/01 11:18:12;;;;;;;9.02;5.47;;;;;;;-146.64;53.24;38617.44;5022493;28;20034;-80
2022/05/01 11:20:38;;;;;;;7.03;5.07;;;;;;;-146.64;54.02;38619.50;5005683;28;20022;-79
2022/05/01 11:23:30;;;;;;;6.50;4.78;;;;;;;-146.64;54.71;38584.72;4993697;28;20385;-80
2022/05/01 11:26:06;;;;;;;7.78;5.00;;;;;;;-146.64;52.80;38482.41;5012740;28;20060;-80
2022/05/01 11:28:41;;;;;;;8.95;5.30;;;;;;;-146.64;51.85;38486.50;4997792;28;20045;-79